Time;durP1;ratioP1;P1;durP2;ratioP2;P2;SDS_P1;SDS_P2;PMS_P1;PMS_P2;Temp;Humidity;BMP_temperature;BMP_pressure;BME280_temperature;BME280_humidity;BME280_pressure;Samples;Min_cycle;Max_cycle;Signal;HPM_P1;HPM_P2
2022/02/23 00:00:40;;;;;;;0.07;0.07;;;7.20;99.90;;;;;;5026088;28;20190;-84
2022/02/23 00:03:06;;;;;;;0.10;0.10;;;7.10;99.90;;;;;;5022823;28;20214;-85
2022/02/23 00:05:32;;;;;;;0.03;0.03;;;7.20;99.90;;;;;;5024265;28;20665;-85
2022/02/23 00:07:57;;;;;;;0.03;0.03;;;7.20;99.90;;;;;;5026145;28;20289;-85
2022/02/23 00:10:23;;;;;;;0.33;0.33;;;7.10;99.90;;;;;;5023577;28;21206;-85
2022/02/23 00:12:49;;;;;;;0.10;0.10;;;7.10;99.90;;;;;;5025211;28;20181;-84
2022/02/23 00:15:14;;;;;;;0.10;0.10;;;7.00;99.90;;;;;;5022049;28;20347;-85
2022/02/23 00:17:40;;;;;;;0.50;0.50;;;6.90;99.90;;;;;;5022828;28;20197;-84
2022/02/23 00:20:06;;;;;;;0.10;0.10;;;7.00;99.90;;;;;;5024624;28;20219;-85
2022/02/23 00:22:34;;;;;;;0.10;0.10;;;7.00;99.90;;;;;;5024596;28;20198;-83
2022/02/23 00:25:00;;;;;;;0.30;0.30;;;7.00;99.90;;;;;;5022690;28;20669;-85
2022/02/23 00:27:26;;;;;;;0.07;0.07;;;7.00;99.90;;;;;;5024981;28;20299;-85
2022/02/23 00:29:53;;;;;;;2.73;2.53;;;7.00;99.90;;;;;;5021830;28;20723;-85
2022/02/23 00:32:20;;;;;;;0.20;0.20;;;7.00;99.90;;;;;;5025880;28;20234;-84
2022/02/23 00:34:46;;;;;;;1.10;0.50;;;7.10;99.90;;;;;;5023398;28;20193;-84
2022/02/23 00:37:12;;;;;;;0.00;0.00;;;7.10;99.90;;;;;;5023312;28;20207;-84
2022/02/23 00:39:37;;;;;;;0.00;0.00;;;7.10;99.90;;;;;;5025084;28;20179;-84
2022/02/23 00:42:03;;;;;;;0.10;0.10;;;7.00;99.90;;;;;;5024067;28;20386;-84
2022/02/23 00:44:29;;;;;;;0.10;0.10;;;7.10;99.90;;;;;;5024381;28;20200;-84
2022/02/23 00:46:55;;;;;;;0.10;0.10;;;7.00;99.90;;;;;;5027163;28;20618;-85
2022/02/23 00:49:21;;;;;;;0.10;0.10;;;7.00;99.90;;;;;;5022694;28;20384;-84
2022/02/23 00:51:47;;;;;;;0.57;0.57;;;7.10;99.90;;;;;;5026378;28;20237;-84
2022/02/23 00:54:12;;;;;;;1.20;0.40;;;7.10;99.90;;;;;;5020872;28;20285;-85
2022/02/23 00:56:38;;;;;;;0.10;0.10;;;7.00;99.90;;;;;;5023123;28;20228;-85
2022/02/23 00:59:04;;;;;;;0.03;0.03;;;7.00;99.90;;;;;;5018585;28;20189;-84
2022/02/23 01:01:29;;;;;;;2.73;0.87;;;7.00;99.90;;;;;;5023585;28;20194;-85
2022/02/23 01:03:55;;;;;;;0.07;0.07;;;7.00;99.90;;;;;;5023559;28;20190;-85
2022/02/23 01:06:22;;;;;;;0.23;0.23;;;7.00;99.90;;;;;;5026268;28;20194;-84
2022/02/23 01:08:48;;;;;;;0.10;0.10;;;6.80;99.90;;;;;;5023497;28;20274;-84
2022/02/23 01:11:16;;;;;;;0.03;0.03;;;6.80;99.90;;;;;;5025607;28;21197;-84
2022/02/23 01:13:42;;;;;;;0.10;0.10;;;6.80;99.90;;;;;;5022502;28;20206;-85
2022/02/23 01:16:08;;;;;;;0.30;0.30;;;6.80;99.90;;;;;;5022690;28;20938;-84
2022/02/23 01:18:34;;;;;;;0.63;0.30;;;6.80;99.90;;;;;;5024894;28;20743;-85
2022/02/23 01:21:00;;;;;;;0.30;0.20;;;6.70;99.90;;;;;;5024512;28;20282;-84
2022/02/23 01:23:25;;;;;;;4.70;0.20;;;6.80;99.90;;;;;;5022600;28;21100;-84
2022/02/23 01:25:51;;;;;;;0.10;0.10;;;6.70;99.90;;;;;;5023838;28;20194;-85
2022/02/23 01:28:16;;;;;;;0.10;0.10;;;6.70;99.90;;;;;;5025434;28;20276;-85
2022/02/23 01:30:42;;;;;;;4.90;0.43;;;6.60;99.90;;;;;;5022170;28;20207;-84
2022/02/23 01:33:08;;;;;;;0.37;0.37;;;6.60;99.90;;;;;;5025609;28;20681;-85
2022/02/23 01:35:33;;;;;;;0.00;0.00;;;6.60;99.90;;;;;;5022873;28;20661;-85
2022/02/23 01:37:59;;;;;;;0.20;0.20;;;6.60;99.90;;;;;;5022454;28;20202;-85
2022/02/23 01:40:25;;;;;;;0.10;0.10;;;6.60;99.90;;;;;;5024288;28;20270;-85
2022/02/23 01:42:51;;;;;;;0.43;0.43;;;6.50;99.90;;;;;;5021047;28;20278;-84
2022/02/23 01:45:18;;;;;;;0.87;0.87;;;6.50;99.90;;;;;;5025080;28;20871;-84
2022/02/23 01:47:44;;;;;;;0.30;0.30;;;6.50;99.90;;;;;;5024664;28;20871;-85
2022/02/23 01:50:11;;;;;;;0.10;0.10;;;6.50;99.90;;;;;;5023860;28;20203;-84
2022/02/23 01:52:36;;;;;;;0.20;0.20;;;6.50;99.90;;;;;;5023947;28;20186;-85
2022/02/23 01:55:04;;;;;;;0.67;0.67;;;6.50;99.90;;;;;;5018138;28;20190;-85
2022/02/23 01:57:29;;;;;;;0.10;0.10;;;6.60;99.90;;;;;;5022970;28;20761;-84
2022/02/23 01:59:55;;;;;;;0.10;0.10;;;6.60;99.90;;;;;;5022923;28;20263;-84
2022/02/23 02:02:21;;;;;;;0.03;0.03;;;6.50;99.90;;;;;;5019153;28;20276;-84
2022/02/23 02:04:47;;;;;;;0.30;0.10;;;6.50;99.90;;;;;;5020212;28;20269;-85
2022/02/23 02:07:12;;;;;;;0.10;0.10;;;6.50;99.90;;;;;;5023590;28;20286;-84
2022/02/23 02:09:38;;;;;;;0.10;0.10;;;6.40;99.90;;;;;;5023264;28;20560;-84
2022/02/23 02:12:04;;;;;;;0.10;0.10;;;6.40;99.90;;;;;;5017772;28;20703;-84
2022/02/23 02:14:29;;;;;;;0.10;0.10;;;6.40;99.90;;;;;;5024864;28;20182;-84
2022/02/23 02:16:55;;;;;;;0.10;0.10;;;6.40;99.90;;;;;;5020139;28;20294;-84
2022/02/23 02:19:20;;;;;;;0.10;0.10;;;6.30;99.90;;;;;;5023394;28;20277;-85
2022/02/23 02:21:57;;;;;;;0.20;0.20;;;6.30;99.90;;;;;;5020641;28;20186;-85
2022/02/23 02:24:25;;;;;;;0.10;0.10;;;6.20;99.90;;;;;;5022916;28;20189;-84
2022/02/23 02:26:51;;;;;;;0.10;0.10;;;6.20;99.90;;;;;;5019980;28;20668;-84
2022/02/23 02:29:18;;;;;;;3.70;0.20;;;6.20;99.90;;;;;;5024980;28;20198;-84
2022/02/23 02:31:44;;;;;;;0.20;0.20;;;6.30;99.90;;;;;;5026084;28;20229;-84
2022/02/23 02:34:09;;;;;;;0.10;0.10;;;6.40;99.90;;;;;;5022724;28;20189;-84
2022/02/23 02:36:35;;;;;;;0.10;0.10;;;6.40;99.90;;;;;;5022304;28;20183;-84
2022/02/23 02:39:00;;;;;;;0.40;0.40;;;6.40;99.90;;;;;;5023395;28;20198;-85
2022/02/23 02:41:26;;;;;;;0.27;0.27;;;6.40;99.90;;;;;;5025233;28;20205;-85
2022/02/23 02:43:51;;;;;;;0.10;0.10;;;6.40;99.90;;;;;;5026593;28;20278;-84
2022/02/23 02:46:17;;;;;;;0.10;0.10;;;6.40;99.90;;;;;;5020995;28;20218;-84
2022/02/23 02:48:42;;;;;;;0.10;0.10;;;6.40;99.90;;;;;;5026749;28;20222;-84
2022/02/23 02:51:08;;;;;;;0.30;0.30;;;6.40;99.90;;;;;;5020529;28;20276;-84
2022/02/23 02:53:33;;;;;;;0.10;0.10;;;6.30;99.90;;;;;;5023198;28;20214;-84
2022/02/23 02:55:59;;;;;;;0.10;0.10;;;6.30;99.90;;;;;;5027004;28;20187;-84
2022/02/23 02:58:24;;;;;;;0.60;0.27;;;6.30;99.90;;;;;;5027608;28;20227;-85
2022/02/23 03:00:50;;;;;;;0.17;0.17;;;6.30;99.90;;;;;;5026792;28;20190;-84
2022/02/23 03:03:15;;;;;;;0.10;0.10;;;6.30;99.90;;;;;;5024569;28;20856;-84
2022/02/23 03:05:41;;;;;;;0.10;0.10;;;6.40;99.90;;;;;;5029408;28;20830;-84
2022/02/23 03:08:07;;;;;;;0.10;0.10;;;6.40;99.90;;;;;;5027780;28;20954;-84
2022/02/23 03:10:32;;;;;;;0.33;0.33;;;6.60;99.90;;;;;;5027358;28;20679;-84
2022/02/23 03:12:58;;;;;;;0.10;0.10;;;6.60;99.90;;;;;;5027414;28;20184;-84
2022/02/23 03:15:23;;;;;;;0.30;0.30;;;6.70;99.90;;;;;;5026322;28;20183;-84
2022/02/23 03:17:49;;;;;;;0.10;0.10;;;6.80;99.90;;;;;;5023872;28;20202;-84
2022/02/23 03:20:16;;;;;;;0.10;0.10;;;6.80;99.90;;;;;;5025270;28;20187;-85
2022/02/23 03:22:42;;;;;;;0.33;0.20;;;6.80;99.90;;;;;;5026077;28;20186;-84
2022/02/23 03:25:08;;;;;;;0.10;0.10;;;6.80;99.90;;;;;;5026341;28;20626;-84
2022/02/23 03:27:33;;;;;;;0.30;0.30;;;6.70;99.90;;;;;;5023464;28;20287;-84
2022/02/23 03:29:59;;;;;;;0.10;0.10;;;6.60;99.90;;;;;;5026024;28;20210;-84
2022/02/23 03:32:25;;;;;;;0.40;0.40;;;6.50;99.90;;;;;;5023637;28;20258;-85
2022/02/23 03:34:50;;;;;;;0.20;0.20;;;6.50;99.90;;;;;;5026117;28;20175;-84
2022/02/23 03:37:16;;;;;;;0.10;0.10;;;6.50;99.90;;;;;;5024147;28;21085;-84
2022/02/23 03:39:41;;;;;;;0.10;0.10;;;6.50;99.90;;;;;;5026964;28;20261;-84
2022/02/23 03:42:07;;;;;;;0.00;0.00;;;6.40;99.90;;;;;;5025416;28;20182;-84
2022/02/23 03:44:33;;;;;;;1.03;0.10;;;6.40;99.90;;;;;;5026533;28;20188;-84
2022/02/23 03:46:58;;;;;;;0.37;0.20;;;6.50;99.90;;;;;;5025723;28;20222;-85
2022/02/23 03:49:24;;;;;;;0.10;0.10;;;6.50;99.90;;;;;;5024032;28;20186;-84
2022/02/23 03:51:49;;;;;;;0.30;0.30;;;6.40;99.90;;;;;;5027774;28;20219;-85
2022/02/23 03:54:15;;;;;;;0.50;0.50;;;6.40;99.90;;;;;;5026758;28;20187;-84
2022/02/23 03:56:42;;;;;;;0.20;0.20;;;6.40;99.90;;;;;;5024278;28;20194;-84
2022/02/23 03:59:09;;;;;;;0.13;0.13;;;6.40;99.90;;;;;;5040699;28;20175;-85
2022/02/23 04:01:36;;;;;;;0.10;0.10;;;6.30;99.90;;;;;;5040811;28;20198;-85
2022/02/23 04:04:03;;;;;;;0.27;0.27;;;6.30;99.90;;;;;;5043359;28;20187;-85
2022/02/23 04:06:30;;;;;;;0.10;0.10;;;6.20;99.90;;;;;;5041034;28;20196;-84
2022/02/23 04:08:57;;;;;;;0.20;0.20;;;6.20;99.90;;;;;;5040600;28;20189;-84
2022/02/23 04:11:23;;;;;;;0.30;0.30;;;6.20;99.90;;;;;;5030727;28;20772;-84
2022/02/23 04:13:48;;;;;;;0.73;0.53;;;6.10;99.90;;;;;;5022475;28;20269;-85
2022/02/23 04:16:14;;;;;;;0.00;0.00;;;6.10;99.90;;;;;;5029215;28;20186;-85
2022/02/23 04:18:41;;;;;;;0.10;0.10;;;6.10;99.90;;;;;;5028432;28;20293;-85
2022/02/23 04:21:07;;;;;;;0.10;0.10;;;6.10;99.90;;;;;;5027391;28;20765;-84
2022/02/23 04:23:32;;;;;;;0.20;0.20;;;6.00;99.90;;;;;;5031890;28;20265;-85
2022/02/23 04:25:58;;;;;;;0.20;0.20;;;6.00;99.90;;;;;;5029232;28;20187;-85
2022/02/23 04:28:26;;;;;;;0.00;0.00;;;6.00;99.90;;;;;;5027852;28;20217;-84
2022/02/23 04:30:52;;;;;;;0.07;0.07;;;6.00;99.90;;;;;;5026663;28;20210;-84
2022/02/23 04:33:18;;;;;;;0.43;0.33;;;6.00;99.90;;;;;;5029386;28;20179;-84
2022/02/23 04:35:44;;;;;;;0.10;0.10;;;6.00;99.90;;;;;;5028894;28;20190;-84
2022/02/23 04:38:09;;;;;;;0.17;0.17;;;6.00;99.90;;;;;;5029730;28;20213;-85
2022/02/23 04:40:35;;;;;;;0.30;0.30;;;6.00;99.90;;;;;;5028127;28;20556;-84
2022/02/23 04:43:00;;;;;;;0.50;0.30;;;5.90;99.90;;;;;;5026401;28;20194;-84
2022/02/23 04:45:26;;;;;;;0.10;0.10;;;5.90;99.90;;;;;;5026417;28;20726;-85
2022/02/23 04:47:52;;;;;;;0.63;0.37;;;5.90;99.90;;;;;;5025721;28;20710;-84
2022/02/23 04:50:17;;;;;;;0.23;0.23;;;5.90;99.90;;;;;;5026744;28;20607;-85
2022/02/23 04:52:44;;;;;;;0.10;0.10;;;5.90;99.90;;;;;;5027507;28;20175;-84
2022/02/23 04:55:09;;;;;;;0.83;0.53;;;5.90;99.90;;;;;;5029278;28;20224;-84
2022/02/23 04:57:35;;;;;;;0.40;0.40;;;5.90;99.90;;;;;;5026696;28;20800;-84
2022/02/23 05:00:00;;;;;;;0.10;0.10;;;5.90;99.90;;;;;;5028046;28;20358;-85
2022/02/23 05:02:26;;;;;;;0.10;0.10;;;5.90;99.90;;;;;;5028687;28;20182;-84
2022/02/23 05:04:51;;;;;;;0.43;0.43;;;5.90;99.90;;;;;;5023163;28;20233;-84
2022/02/23 05:07:18;;;;;;;0.43;0.33;;;5.90;99.90;;;;;;5026684;28;20241;-84
2022/02/23 05:09:44;;;;;;;0.87;0.20;;;5.80;99.90;;;;;;5024953;28;20261;-85
2022/02/23 05:12:10;;;;;;;0.20;0.20;;;5.80;99.90;;;;;;5023701;28;20219;-86
2022/02/23 05:14:36;;;;;;;0.20;0.20;;;5.80;99.90;;;;;;5044218;28;20193;-85
2022/02/23 05:17:02;;;;;;;0.10;0.10;;;5.70;99.90;;;;;;5026297;28;20202;-85
2022/02/23 05:19:29;;;;;;;0.10;0.10;;;5.70;99.90;;;;;;5029010;28;20197;-85
2022/02/23 05:21:55;;;;;;;0.43;0.27;;;5.70;99.90;;;;;;5024900;28;20191;-84
2022/02/23 05:24:20;;;;;;;0.20;0.20;;;5.70;99.90;;;;;;5026796;28;20561;-84
2022/02/23 05:26:47;;;;;;;0.10;0.10;;;5.60;99.90;;;;;;5025253;28;20217;-84
2022/02/23 05:29:12;;;;;;;0.10;0.10;;;5.60;99.90;;;;;;5025522;28;20178;-84
2022/02/23 05:31:38;;;;;;;0.10;0.10;;;5.60;99.90;;;;;;5024793;28;20817;-84
2022/02/23 05:34:03;;;;;;;0.00;0.00;;;5.50;99.90;;;;;;5027885;28;20186;-84
2022/02/23 05:36:29;;;;;;;0.77;0.30;;;5.50;99.90;;;;;;5022617;28;20200;-85
2022/02/23 05:38:55;;;;;;;0.57;0.50;;;5.40;99.90;;;;;;5023097;28;20547;-84
2022/02/23 05:41:20;;;;;;;0.00;0.00;;;5.40;99.90;;;;;;5023665;28;20186;-84
2022/02/23 05:43:46;;;;;;;0.73;0.40;;;5.30;99.90;;;;;;5020361;28;20183;-84
2022/02/23 05:46:11;;;;;;;2.10;0.40;;;5.10;99.90;;;;;;5020809;28;20216;-84
2022/02/23 05:48:37;;;;;;;0.50;0.50;;;5.10;99.90;;;;;;5022358;28;20241;-84
2022/02/23 05:51:02;;;;;;;0.73;0.53;;;5.00;99.90;;;;;;5023188;28;20217;-85
2022/02/23 05:53:28;;;;;;;0.10;0.10;;;5.00;99.90;;;;;;5026238;28;20216;-86
2022/02/23 05:55:53;;;;;;;0.00;0.00;;;4.90;99.90;;;;;;5022912;28;20713;-84
2022/02/23 05:58:19;;;;;;;0.20;0.20;;;4.90;99.90;;;;;;5021579;28;20706;-84
2022/02/23 06:00:45;;;;;;;0.10;0.10;;;4.90;99.90;;;;;;5023680;28;20186;-84
2022/02/23 06:03:10;;;;;;;0.00;0.00;;;4.80;99.90;;;;;;5025324;28;20201;-85
2022/02/23 06:05:36;;;;;;;0.10;0.10;;;4.80;99.90;;;;;;5041087;28;20220;-84
2022/02/23 06:08:02;;;;;;;0.10;0.10;;;4.70;99.90;;;;;;5021906;28;20209;-84
2022/02/23 06:10:27;;;;;;;0.10;0.10;;;4.60;99.90;;;;;;5025513;28;20221;-84
2022/02/23 06:12:53;;;;;;;0.10;0.10;;;4.60;99.90;;;;;;5029467;28;20683;-84
2022/02/23 06:15:19;;;;;;;0.00;0.00;;;4.50;99.90;;;;;;5031176;28;20197;-84
2022/02/23 06:17:45;;;;;;;0.17;0.17;;;4.50;99.90;;;;;;5028030;28;20205;-83
2022/02/23 06:20:11;;;;;;;0.10;0.10;;;4.50;99.90;;;;;;5026156;28;20681;-84
2022/02/23 06:22:37;;;;;;;0.87;0.40;;;4.50;99.90;;;;;;5031976;28;20192;-84
2022/02/23 06:25:03;;;;;;;0.10;0.10;;;4.50;99.90;;;;;;5026932;28;20203;-84
2022/02/23 06:27:29;;;;;;;0.20;0.20;;;4.50;99.90;;;;;;5032495;28;20217;-84
2022/02/23 06:29:54;;;;;;;0.30;0.30;;;4.60;99.90;;;;;;5023996;28;20189;-84
2022/02/23 06:32:20;;;;;;;0.10;0.10;;;4.60;99.90;;;;;;5031614;28;20182;-84
2022/02/23 06:34:46;;;;;;;0.10;0.10;;;4.70;99.90;;;;;;5023284;28;20185;-84
2022/02/23 06:37:11;;;;;;;0.10;0.10;;;4.70;99.90;;;;;;5031376;28;20209;-83
2022/02/23 06:39:39;;;;;;;0.20;0.20;;;4.70;99.90;;;;;;5028470;28;20578;-84
2022/02/23 06:42:05;;;;;;;0.20;0.20;;;4.80;99.90;;;;;;5028120;28;20265;-84
2022/02/23 06:44:31;;;;;;;0.20;0.20;;;4.80;99.90;;;;;;5031906;28;20673;-83
2022/02/23 06:47:01;;;;;;;0.40;0.40;;;4.90;99.90;;;;;;5033137;28;20216;-83
2022/02/23 06:49:28;;;;;;;0.37;0.37;;;4.90;99.90;;;;;;5031947;28;20208;-82
2022/02/23 06:51:58;;;;;;;0.10;0.10;;;4.90;99.90;;;;;;5030300;28;20209;-82
2022/02/23 06:54:24;;;;;;;0.10;0.10;;;5.00;99.90;;;;;;5028011;28;20182;-82
2022/02/23 06:56:50;;;;;;;0.50;0.13;;;5.10;99.90;;;;;;5032966;28;20260;-82
2022/02/23 06:59:17;;;;;;;0.10;0.10;;;5.10;99.90;;;;;;5032333;28;20205;-82
2022/02/23 07:01:42;;;;;;;0.40;0.30;;;5.20;99.90;;;;;;5030648;28;20186;-82
2022/02/23 07:04:08;;;;;;;0.63;0.57;;;5.20;99.90;;;;;;5029756;28;20733;-82
2022/02/23 07:06:33;;;;;;;0.10;0.10;;;5.30;99.90;;;;;;5034049;28;20606;-82
2022/02/23 07:08:59;;;;;;;0.10;0.10;;;5.30;99.90;;;;;;5031452;28;20212;-83
2022/02/23 07:11:25;;;;;;;0.10;0.10;;;5.40;99.90;;;;;;5033932;28;20210;-82
2022/02/23 07:13:52;;;;;;;0.10;0.10;;;5.50;99.90;;;;;;5028887;28;20220;-82
2022/02/23 07:16:23;;;;;;;1.40;0.30;;;5.60;99.90;;;;;;5031832;28;20614;-83
2022/02/23 07:18:48;;;;;;;0.00;0.00;;;5.70;99.90;;;;;;5032715;28;20179;-82
2022/02/23 07:21:14;;;;;;;1.40;0.30;;;5.70;99.90;;;;;;5048881;28;20609;-82
2022/02/23 07:23:39;;;;;;;0.10;0.10;;;5.80;99.90;;;;;;5030596;28;20187;-82
2022/02/23 07:26:05;;;;;;;0.13;0.13;;;5.90;99.90;;;;;;5029270;28;20186;-82
2022/02/23 07:28:31;;;;;;;0.00;0.00;;;6.00;99.90;;;;;;5030098;28;20692;-82
2022/02/23 07:30:57;;;;;;;0.10;0.10;;;6.10;99.90;;;;;;5031131;28;20203;-82
2022/02/23 07:33:23;;;;;;;0.20;0.20;;;6.20;99.90;;;;;;5025680;28;20182;-82
2022/02/23 07:35:48;;;;;;;0.10;0.10;;;6.30;99.90;;;;;;5029310;28;20209;-82
2022/02/23 07:38:14;;;;;;;4.63;0.87;;;6.30;99.90;;;;;;5031896;28;20213;-82
2022/02/23 07:40:39;;;;;;;0.33;0.33;;;6.40;99.90;;;;;;5026697;28;20250;-84
2022/02/23 07:43:06;;;;;;;0.10;0.10;;;6.50;99.90;;;;;;5025420;28;20232;-81
2022/02/23 07:45:35;;;;;;;0.10;0.10;;;6.60;99.90;;;;;;5025607;28;20187;-82
2022/02/23 07:48:02;;;;;;;0.37;0.30;;;6.70;99.90;;;;;;5022056;28;20225;-82
2022/02/23 07:50:28;;;;;;;0.10;0.10;;;6.80;99.90;;;;;;5026310;28;20288;-82
2022/02/23 07:52:54;;;;;;;0.10;0.10;;;6.90;99.90;;;;;;5027300;28;20193;-82
2022/02/23 07:55:21;;;;;;;0.10;0.10;;;7.00;99.90;;;;;;5027859;28;20186;-82
2022/02/23 07:57:46;;;;;;;2.77;0.17;;;7.20;99.90;;;;;;5027450;28;20230;-82
2022/02/23 08:00:12;;;;;;;1.07;0.50;;;7.20;99.90;;;;;;5028691;28;20264;-82
2022/02/23 08:02:39;;;;;;;0.10;0.10;;;7.30;99.90;;;;;;5027698;28;20185;-81
2022/02/23 08:05:06;;;;;;;0.40;0.40;;;7.40;99.90;;;;;;5028991;28;20200;-82
2022/02/23 08:07:31;;;;;;;2.53;0.40;;;7.40;99.90;;;;;;5021165;28;20202;-82
2022/02/23 08:09:57;;;;;;;0.10;0.10;;;7.50;99.90;;;;;;5022635;28;20552;-83
2022/02/23 08:12:23;;;;;;;1.53;0.57;;;7.60;99.90;;;;;;5019758;28;20192;-82
2022/02/23 08:14:48;;;;;;;0.10;0.10;;;7.70;99.90;;;;;;5023676;28;20235;-81
2022/02/23 08:19:58;;;;;;;0.40;0.40;;;7.80;99.90;;;;;;5027532;28;20202;-82
2022/02/23 08:22:28;;;;;;;0.10;0.10;;;7.90;99.90;;;;;;5018370;28;20990;-82
2022/02/23 08:24:56;;;;;;;0.10;0.10;;;7.90;99.90;;;;;;5028830;28;20168;-82
2022/02/23 08:27:23;;;;;;;0.43;0.43;;;8.00;99.90;;;;;;5027769;28;20664;-82
2022/02/23 08:29:50;;;;;;;0.20;0.20;;;8.10;99.90;;;;;;5028832;28;20203;-82
2022/02/23 08:32:18;;;;;;;0.27;0.27;;;8.30;99.90;;;;;;5027805;28;20265;-82
2022/02/23 08:34:46;;;;;;;0.20;0.20;;;8.50;99.90;;;;;;5026175;28;20184;-82
2022/02/23 08:37:12;;;;;;;3.40;0.57;;;8.60;99.90;;;;;;5025698;28;20221;-82
2022/02/23 08:39:39;;;;;;;0.10;0.10;;;8.80;99.90;;;;;;5028012;28;20179;-82
2022/02/23 08:42:08;;;;;;;0.20;0.20;;;8.80;99.90;;;;;;5028755;28;20233;-82
2022/02/23 08:44:33;;;;;;;0.10;0.10;;;8.90;99.90;;;;;;5027312;28;20246;-82
2022/02/23 08:46:59;;;;;;;1.23;1.07;;;8.90;99.90;;;;;;5026934;28;20208;-82
2022/02/23 08:49:25;;;;;;;0.60;0.60;;;9.00;99.90;;;;;;5026026;28;20186;-81
2022/02/23 08:51:51;;;;;;;0.10;0.10;;;9.00;99.90;;;;;;5027361;28;20217;-82
2022/02/23 08:54:18;;;;;;;0.43;0.30;;;9.10;99.90;;;;;;5026996;28;20743;-82
2022/02/23 08:56:44;;;;;;;0.20;0.20;;;9.20;99.90;;;;;;5026560;28;20682;-83
2022/02/23 08:59:10;;;;;;;3.73;0.50;;;9.30;99.90;;;;;;5027847;28;20190;-82
2022/02/23 09:01:36;;;;;;;0.10;0.10;;;9.50;99.90;;;;;;5026222;28;20188;-82
2022/02/23 09:04:02;;;;;;;0.20;0.20;;;9.70;99.90;;;;;;5026077;28;20622;-82
2022/02/23 09:06:30;;;;;;;0.37;0.37;;;9.90;99.90;;;;;;5026032;28;20193;-82
2022/02/23 09:08:55;;;;;;;0.10;0.10;;;9.80;99.90;;;;;;5025687;28;20281;-82
2022/02/23 09:11:21;;;;;;;0.57;0.30;;;9.90;99.90;;;;;;5022165;28;20620;-82
2022/02/23 09:13:46;;;;;;;0.30;0.30;;;9.90;99.90;;;;;;5025387;28;20641;-82
2022/02/23 09:16:12;;;;;;;0.53;0.53;;;10.00;99.90;;;;;;5026116;28;20619;-82
2022/02/23 09:18:38;;;;;;;0.30;0.30;;;10.10;99.90;;;;;;5026940;28;20205;-82
2022/02/23 09:21:03;;;;;;;0.40;0.40;;;10.10;99.90;;;;;;5025765;28;20201;-82
2022/02/23 09:23:31;;;;;;;0.40;0.40;;;10.20;99.90;;;;;;5026836;28;20213;-83
2022/02/23 09:25:56;;;;;;;0.77;0.47;;;10.30;99.90;;;;;;5025561;28;20182;-82
2022/02/23 09:28:22;;;;;;;0.23;0.20;;;10.40;99.90;;;;;;5030021;28;20212;-82
2022/02/23 09:30:48;;;;;;;2.97;1.10;;;10.50;99.90;;;;;;5025682;28;20293;-82
2022/02/23 09:33:14;;;;;;;0.20;0.20;;;10.50;99.90;;;;;;5027298;28;20201;-83
2022/02/23 09:35:40;;;;;;;0.20;0.20;;;10.60;99.90;;;;;;5022903;28;20179;-82
2022/02/23 09:38:06;;;;;;;0.10;0.10;;;10.60;99.90;;;;;;5025224;28;20213;-82
2022/02/23 09:40:32;;;;;;;0.50;0.50;;;10.50;99.90;;;;;;5026865;28;20193;-82
2022/02/23 09:42:57;;;;;;;0.30;0.30;;;10.60;99.90;;;;;;5024573;28;20189;-82
2022/02/23 09:45:23;;;;;;;0.10;0.10;;;10.80;99.90;;;;;;5025349;28;20207;-83
2022/02/23 09:47:50;;;;;;;0.43;0.40;;;11.00;99.90;;;;;;5021599;28;20208;-86
2022/02/23 09:50:20;;;;;;;0.10;0.10;;;11.10;99.90;;;;;;5019156;28;20190;-82
2022/02/23 09:52:47;;;;;;;0.10;0.10;;;11.30;99.90;;;;;;5022833;28;20224;-82
2022/02/23 09:55:14;;;;;;;0.50;0.30;;;11.20;99.90;;;;;;5021329;28;20681;-82
2022/02/23 09:57:40;;;;;;;0.23;0.23;;;11.30;99.90;;;;;;5022875;28;20229;-83
2022/02/23 10:00:07;;;;;;;0.30;0.30;;;11.20;99.90;;;;;;5023131;28;20213;-82
2022/02/23 10:02:34;;;;;;;0.20;0.10;;;11.20;99.90;;;;;;5022704;28;20609;-82
2022/02/23 10:05:01;;;;;;;0.30;0.23;;;11.30;99.90;;;;;;5022321;28;20197;-82
2022/02/23 10:07:30;;;;;;;0.10;0.10;;;11.40;99.90;;;;;;5023840;28;20230;-82
2022/02/23 10:09:57;;;;;;;0.63;0.30;;;11.50;99.90;;;;;;5022419;28;20182;-82
2022/02/23 10:12:27;;;;;;;0.13;0.13;;;11.70;99.90;;;;;;5019760;28;20240;-82
2022/02/23 10:15:06;;;;;;;1.03;0.67;;;11.80;99.90;;;;;;5021610;28;20197;-81
2022/02/23 10:17:37;;;;;;;1.07;0.53;;;11.80;99.90;;;;;;5023599;28;20210;-82
2022/02/23 10:20:04;;;;;;;1.37;1.03;;;11.80;99.90;;;;;;5017588;28;20190;-82
2022/02/23 10:22:32;;;;;;;0.20;0.20;;;11.80;99.90;;;;;;5018452;28;20178;-81
2022/02/23 10:24:59;;;;;;;0.10;0.10;;;11.90;99.90;;;;;;5015483;28;20185;-81
2022/02/23 10:27:25;;;;;;;0.10;0.10;;;12.10;99.90;;;;;;5020463;28;20211;-82
2022/02/23 10:29:54;;;;;;;0.10;0.10;;;12.00;99.90;;;;;;5021061;28;20186;-82
2022/02/23 10:32:24;;;;;;;0.23;0.23;;;12.00;99.90;;;;;;5023567;28;20231;-82
2022/02/23 10:34:52;;;;;;;0.10;0.10;;;12.00;99.90;;;;;;5019705;28;20178;-83
2022/02/23 10:37:23;;;;;;;0.10;0.10;;;12.10;99.90;;;;;;5019737;28;20561;-83
2022/02/23 10:39:54;;;;;;;0.50;0.50;;;12.00;99.90;;;;;;5021982;28;20174;-83
2022/02/23 10:42:26;;;;;;;0.20;0.20;;;12.10;99.90;;;;;;5020193;28;21265;-82
2022/02/23 10:44:54;;;;;;;8.70;0.67;;;12.10;99.90;;;;;;5017746;28;20184;-82
2022/02/23 10:47:34;;;;;;;0.40;0.40;;;12.10;99.90;;;;;;5021131;28;20288;-82
2022/02/23 10:50:12;;;;;;;0.40;0.40;;;12.20;99.90;;;;;;5020899;28;20186;-83
2022/02/23 10:52:39;;;;;;;0.10;0.10;;;12.20;99.90;;;;;;5023843;28;20269;-83
2022/02/23 10:55:26;;;;;;;7.13;0.73;;;12.30;99.90;;;;;;5017669;28;20202;-82
2022/02/23 10:57:57;;;;;;;0.30;0.30;;;12.20;99.90;;;;;;5018108;28;20206;-83
2022/02/23 11:00:26;;;;;;;0.73;0.50;;;12.40;99.90;;;;;;5025009;28;20182;-82
2022/02/23 11:02:52;;;;;;;0.10;0.10;;;12.50;99.90;;;;;;5025030;28;20186;-83
2022/02/23 11:05:23;;;;;;;0.20;0.20;;;12.60;99.90;;;;;;5024374;28;20205;-82
2022/02/23 11:07:49;;;;;;;0.10;0.10;;;12.70;99.90;;;;;;5020191;28;20205;-83
2022/02/23 11:10:15;;;;;;;0.20;0.20;;;12.70;99.90;;;;;;5027166;28;20221;-82
2022/02/23 11:12:46;;;;;;;0.13;0.13;;;12.60;99.90;;;;;;5021229;28;20214;-82
2022/02/23 11:15:13;;;;;;;0.10;0.10;;;12.60;99.90;;;;;;5025028;28;20212;-82
2022/02/23 11:17:40;;;;;;;0.20;0.20;;;12.80;99.90;;;;;;5030679;28;20198;-84
2022/02/23 11:20:07;;;;;;;1.50;0.73;;;12.90;99.90;;;;;;5024651;28;20282;-85
2022/02/23 11:22:32;;;;;;;0.13;0.10;;;13.00;99.90;;;;;;5028454;28;20182;-84
2022/02/23 11:25:00;;;;;;;0.10;0.10;;;13.10;99.90;;;;;;5028068;28;20479;-84
2022/02/23 11:27:31;;;;;;;0.13;0.13;;;13.10;99.90;;;;;;5027834;28;20761;-84
2022/02/23 11:30:05;;;;;;;0.00;0.00;;;13.00;99.90;;;;;;5027092;28;20232;-85
2022/02/23 11:32:39;;;;;;;0.10;0.10;;;13.10;99.90;;;;;;5029570;28;20276;-84
2022/02/23 11:35:07;;;;;;;1.07;1.07;;;13.00;99.90;;;;;;5023657;28;20195;-83
2022/02/23 11:37:33;;;;;;;0.13;0.13;;;13.10;99.90;;;;;;5021943;28;20575;-85
2022/02/23 11:39:59;;;;;;;0.67;0.20;;;13.00;99.90;;;;;;5029474;28;20201;-84
2022/02/23 11:42:25;;;;;;;0.30;0.30;;;12.80;99.90;;;;;;5026053;28;20625;-85
2022/02/23 11:45:13;;;;;;;0.10;0.10;;;12.80;99.90;;;;;;5027870;28;20281;-85
2022/02/23 11:47:46;;;;;;;1.07;0.87;;;12.80;99.90;;;;;;5024970;28;20214;-84
2022/02/23 11:50:22;;;;;;;0.37;0.20;;;13.00;99.90;;;;;;5026077;28;21527;-85
2022/02/23 11:52:52;;;;;;;0.10;0.10;;;13.00;99.90;;;;;;5023862;28;20186;-86
2022/02/23 11:55:20;;;;;;;0.40;0.40;;;12.80;99.90;;;;;;5027414;28;20281;-84
2022/02/23 11:57:50;;;;;;;0.40;0.40;;;12.90;99.90;;;;;;5027452;28;20206;-84
2022/02/23 12:00:25;;;;;;;2.30;0.70;;;13.00;99.90;;;;;;5026500;28;20228;-84
2022/02/23 12:03:03;;;;;;;0.83;0.50;;;13.00;99.90;;;;;;5027719;28;20231;-85
2022/02/23 12:05:35;;;;;;;0.27;0.27;;;13.10;99.90;;;;;;5025002;28;20699;-85
2022/02/23 12:08:01;;;;;;;4.00;0.40;;;13.10;99.90;;;;;;5027307;28;20675;-85
2022/02/23 12:10:27;;;;;;;0.73;0.73;;;13.10;99.90;;;;;;5025386;28;20265;-84
2022/02/23 12:12:54;;;;;;;0.97;0.20;;;12.90;99.90;;;;;;5028048;28;20189;-85
2022/02/23 12:15:34;;;;;;;2.93;0.40;;;13.00;99.90;;;;;;5024472;28;20720;-86
2022/02/23 12:18:01;;;;;;;0.90;0.70;;;13.10;99.90;;;;;;5027360;28;20225;-84
2022/02/23 12:20:35;;;;;;;0.10;0.10;;;13.10;99.90;;;;;;5025559;28;20716;-84
2022/02/23 12:23:06;;;;;;;0.20;0.20;;;12.90;99.90;;;;;;5021582;28;20187;-85
2022/02/23 12:25:51;;;;;;;2.33;0.20;;;13.00;99.90;;;;;;5020526;28;20186;-85
2022/02/23 12:28:19;;;;;;;0.20;0.10;;;13.10;99.90;;;;;;5022229;28;20287;-84
2022/02/23 12:30:49;;;;;;;0.30;0.30;;;13.20;99.90;;;;;;5025966;28;20209;-83
2022/02/23 12:33:15;;;;;;;0.77;0.73;;;13.20;99.90;;;;;;5024923;28;20460;-82
2022/02/23 12:35:43;;;;;;;0.67;0.30;;;13.20;99.90;;;;;;5024240;28;20689;-83
2022/02/23 12:38:10;;;;;;;0.10;0.10;;;13.20;99.90;;;;;;5023032;28;20301;-83
2022/02/23 12:40:37;;;;;;;0.10;0.10;;;13.30;99.90;;;;;;5025902;28;20206;-83
2022/02/23 12:43:04;;;;;;;0.10;0.10;;;13.20;99.90;;;;;;5028419;28;20204;-83
2022/02/23 12:45:30;;;;;;;0.30;0.30;;;13.20;99.90;;;;;;5029246;28;20195;-83
2022/02/23 12:48:01;;;;;;;0.20;0.20;;;13.20;99.90;;;;;;5027633;28;20679;-82
2022/02/23 12:50:31;;;;;;;0.20;0.20;;;13.30;99.90;;;;;;5026045;28;20236;-84
2022/02/23 12:52:57;;;;;;;0.10;0.10;;;13.40;99.90;;;;;;5023167;28;20182;-84
2022/02/23 12:55:22;;;;;;;0.40;0.30;;;13.50;99.90;;;;;;5024733;28;20240;-85